sensor_id;sensor_type;location;lat;lon;timestamp;pressure;altitude;pressure_sealevel;temperature;humidity
829;BME280;396;52.558;13.188;2022-12-18T00:00:07;102702.78;;;-3.93;97.35
829;BME280;396;52.558;13.188;2022-12-18T00:02:34;102711.75;;;-3.86;96.41
829;BME280;396;52.558;13.188;2022-12-18T00:05:00;102711.47;;;-3.83;97.34
829;BME280;396;52.558;13.188;2022-12-18T00:07:27;102719.09;;;-3.79;97.97
829;BME280;396;52.558;13.188;2022-12-18T00:09:54;102711.47;;;-3.83;97.05
829;BME280;396;52.558;13.188;2022-12-18T00:12:20;102710.47;;;-3.82;97.00
829;BME280;396;52.558;13.188;2022-12-18T00:14:48;102713.56;;;-3.86;96.73
829;BME280;396;52.558;13.188;2022-12-18T00:17:15;102716.91;;;-3.84;96.69
829;BME280;396;52.558;13.188;2022-12-18T00:19:41;102715.09;;;-3.84;96.25
829;BME280;396;52.558;13.188;2022-12-18T00:22:08;102710.56;;;-3.91;96.02
829;BME280;396;52.558;13.188;2022-12-18T00:24:34;102713.97;;;-3.99;96.57
829;BME280;396;52.558;13.188;2022-12-18T00:27:01;102710.41;;;-4.08;96.16
829;BME280;396;52.558;13.188;2022-12-18T00:29:28;102712.13;;;-4.16;96.36
829;BME280;396;52.558;13.188;2022-12-18T00:31:56;102712.38;;;-4.27;97.37
829;BME280;396;52.558;13.188;2022-12-18T00:34:22;102713.38;;;-4.28;98.12
829;BME280;396;52.558;13.188;2022-12-18T00:36:49;102711.25;;;-4.25;97.52
829;BME280;396;52.558;13.188;2022-12-18T00:39:15;102711.19;;;-4.33;97.57
829;BME280;396;52.558;13.188;2022-12-18T00:41:42;102707.75;;;-4.43;98.24
829;BME280;396;52.558;13.188;2022-12-18T00:44:26;102707.69;;;-4.34;98.38
829;BME280;396;52.558;13.188;2022-12-18T00:46:53;102705.63;;;-4.40;98.10
829;BME280;396;52.558;13.188;2022-12-18T00:49:21;102705.06;;;-4.34;98.10
829;BME280;396;52.558;13.188;2022-12-18T00:51:48;102707.09;;;-4.27;96.96
829;BME280;396;52.558;13.188;2022-12-18T00:54:14;102704.00;;;-4.23;96.96
829;BME280;396;52.558;13.188;2022-12-18T00:56:41;102709.13;;;-4.21;96.20
829;BME280;396;52.558;13.188;2022-12-18T00:59:08;102713.50;;;-4.12;95.85
829;BME280;396;52.558;13.188;2022-12-18T01:01:35;102718.78;;;-4.12;95.83
829;BME280;396;52.558;13.188;2022-12-18T01:04:02;102717.75;;;-4.19;95.86
829;BME280;396;52.558;13.188;2022-12-18T01:06:30;102719.63;;;-4.29;95.72
829;BME280;396;52.558;13.188;2022-12-18T01:08:57;102716.84;;;-4.28;95.41
829;BME280;396;52.558;13.188;2022-12-18T01:11:24;102729.25;;;-4.28;95.02
829;BME280;396;52.558;13.188;2022-12-18T01:13:51;102725.31;;;-4.24;94.85
829;BME280;396;52.558;13.188;2022-12-18T01:16:18;102715.94;;;-4.37;95.15
829;BME280;396;52.558;13.188;2022-12-18T01:18:45;102729.31;;;-4.38;96.06
829;BME280;396;52.558;13.188;2022-12-18T01:21:13;102739.19;;;-4.40;95.27
829;BME280;396;52.558;13.188;2022-12-18T01:23:51;102736.78;;;-4.34;95.52
829;BME280;396;52.558;13.188;2022-12-18T01:26:18;102734.88;;;-4.41;95.46
829;BME280;396;52.558;13.188;2022-12-18T01:28:45;102737.66;;;-4.43;95.33
829;BME280;396;52.558;13.188;2022-12-18T01:31:17;102742.94;;;-4.43;96.25
829;BME280;396;52.558;13.188;2022-12-18T01:33:45;102749.56;;;-4.29;95.63
829;BME280;396;52.558;13.188;2022-12-18T01:36:18;102747.38;;;-4.34;95.67
829;BME280;396;52.558;13.188;2022-12-18T01:38:47;102744.94;;;-4.45;95.83
829;BME280;396;52.558;13.188;2022-12-18T01:41:15;102748.84;;;-4.49;96.19
829;BME280;396;52.558;13.188;2022-12-18T01:43:49;102750.28;;;-4.54;96.58
829;BME280;396;52.558;13.188;2022-12-18T01:46:17;102749.44;;;-4.55;96.84
829;BME280;396;52.558;13.188;2022-12-18T01:48:45;102755.19;;;-4.60;96.96
829;BME280;396;52.558;13.188;2022-12-18T01:51:13;102758.88;;;-4.52;95.94
829;BME280;396;52.558;13.188;2022-12-18T01:53:42;102749.44;;;-4.55;96.17
829;BME280;396;52.558;13.188;2022-12-18T01:56:14;102754.13;;;-4.49;95.68
829;BME280;396;52.558;13.188;2022-12-18T01:58:48;102751.75;;;-4.42;95.72
829;BME280;396;52.558;13.188;2022-12-18T02:01:16;102756.34;;;-4.44;95.96
829;BME280;396;52.558;13.188;2022-12-18T02:03:44;102762.06;;;-4.49;96.70
829;BME280;396;52.558;13.188;2022-12-18T02:06:15;102760.78;;;-4.45;96.28
829;BME280;396;52.558;13.188;2022-12-18T02:08:49;102761.91;;;-4.47;95.81
829;BME280;396;52.558;13.188;2022-12-18T02:11:29;102754.38;;;-4.42;95.51
829;BME280;396;52.558;13.188;2022-12-18T02:14:08;102768.28;;;-4.40;95.21
829;BME280;396;52.558;13.188;2022-12-18T02:16:42;102763.88;;;-4.49;95.63
829;BME280;396;52.558;13.188;2022-12-18T02:19:23;102757.81;;;-4.60;96.06
829;BME280;396;52.558;13.188;2022-12-18T02:22:00;102759.22;;;-4.65;96.90
829;BME280;396;52.558;13.188;2022-12-18T02:24:37;102759.09;;;-4.64;96.73
829;BME280;396;52.558;13.188;2022-12-18T02:27:07;102763.63;;;-4.56;97.04
829;BME280;396;52.558;13.188;2022-12-18T02:29:39;102755.84;;;-4.58;96.45
829;BME280;396;52.558;13.188;2022-12-18T02:32:10;102762.56;;;-4.63;96.71
829;BME280;396;52.558;13.188;2022-12-18T02:34:39;102772.53;;;-4.57;96.34
829;BME280;396;52.558;13.188;2022-12-18T02:37:10;102779.91;;;-4.51;96.77
829;BME280;396;52.558;13.188;2022-12-18T02:39:40;102765.19;;;-4.36;96.26
829;BME280;396;52.558;13.188;2022-12-18T02:42:09;102768.53;;;-4.34;96.45
829;BME280;396;52.558;13.188;2022-12-18T02:44:42;102771.56;;;-4.28;96.24
829;BME280;396;52.558;13.188;2022-12-18T02:47:10;102777.81;;;-4.29;95.76
829;BME280;396;52.558;13.188;2022-12-18T02:49:44;102772.28;;;-4.36;95.96
829;BME280;396;52.558;13.188;2022-12-18T02:52:21;102768.28;;;-4.40;95.93
829;BME280;396;52.558;13.188;2022-12-18T02:54:57;102767.19;;;-4.47;96.26
829;BME280;396;52.558;13.188;2022-12-18T02:57:33;102778.22;;;-4.52;95.83
829;BME280;396;52.558;13.188;2022-12-18T03:00:05;102767.78;;;-4.53;96.12
829;BME280;396;52.558;13.188;2022-12-18T03:02:37;102766.13;;;-4.54;94.81
829;BME280;396;52.558;13.188;2022-12-18T03:05:11;102770.97;;;-4.50;94.78
829;BME280;396;52.558;13.188;2022-12-18T03:07:44;102775.56;;;-4.52;94.13
829;BME280;396;52.558;13.188;2022-12-18T03:10:16;102771.22;;;-4.43;94.49
829;BME280;396;52.558;13.188;2022-12-18T03:12:50;102779.03;;;-4.42;94.60
829;BME280;396;52.558;13.188;2022-12-18T03:15:21;102776.66;;;-4.45;93.85
829;BME280;396;52.558;13.188;2022-12-18T03:17:52;102777.44;;;-4.35;93.93
829;BME280;396;52.558;13.188;2022-12-18T03:20:23;102774.13;;;-4.37;94.07
829;BME280;396;52.558;13.188;2022-12-18T03:22:57;102769.50;;;-4.35;93.97
829;BME280;396;52.558;13.188;2022-12-18T03:25:27;102770.25;;;-4.42;93.66
829;BME280;396;52.558;13.188;2022-12-18T03:27:58;102764.88;;;-4.50;94.37
829;BME280;396;52.558;13.188;2022-12-18T03:30:28;102760.91;;;-4.64;94.74
829;BME280;396;52.558;13.188;2022-12-18T03:33:01;102756.19;;;-4.70;94.71
829;BME280;396;52.558;13.188;2022-12-18T03:35:31;102758.72;;;-4.78;95.42
829;BME280;396;52.558;13.188;2022-12-18T03:38:00;102779.47;;;-4.84;95.65
829;BME280;396;52.558;13.188;2022-12-18T03:40:31;102773.50;;;-4.86;96.35
829;BME280;396;52.558;13.188;2022-12-18T03:43:08;102775.44;;;-4.88;96.33
829;BME280;396;52.558;13.188;2022-12-18T03:45:37;102775.31;;;-4.86;96.38
829;BME280;396;52.558;13.188;2022-12-18T03:48:12;102772.91;;;-4.79;96.76
829;BME280;396;52.558;13.188;2022-12-18T03:50:45;102773.19;;;-4.73;96.50
829;BME280;396;52.558;13.188;2022-12-18T03:53:23;102774.59;;;-4.78;96.98
829;BME280;396;52.558;13.188;2022-12-18T03:55:52;102776.50;;;-4.71;97.11
829;BME280;396;52.558;13.188;2022-12-18T03:58:24;102765.38;;;-4.65;97.04
829;BME280;396;52.558;13.188;2022-12-18T04:00:52;102774.25;;;-4.66;96.15
829;BME280;396;52.558;13.188;2022-12-18T04:03:22;102768.13;;;-4.66;95.95
829;BME280;396;52.558;13.188;2022-12-18T04:05:51;102778.59;;;-4.65;95.80
829;BME280;396;52.558;13.188;2022-12-18T04:08:19;102785.66;;;-4.65;95.96
829;BME280;396;52.558;13.188;2022-12-18T04:10:47;102792.91;;;-4.67;95.37
829;BME280;396;52.558;13.188;2022-12-18T04:13:23;102785.66;;;-4.65;95.44
829;BME280;396;52.558;13.188;2022-12-18T04:15:50;102787.03;;;-4.61;95.11
829;BME280;396;52.558;13.188;2022-12-18T04:18:16;102784.09;;;-4.58;95.29
829;BME280;396;52.558;13.188;2022-12-18T04:20:43;102782.13;;;-4.56;96.03
829;BME280;396;52.558;13.188;2022-12-18T04:23:10;102793.41;;;-4.54;95.63
829;BME280;396;52.558;13.188;2022-12-18T04:25:36;102798.94;;;-4.47;95.86
829;BME280;396;52.558;13.188;2022-12-18T04:28:03;102801.06;;;-4.51;96.14
829;BME280;396;52.558;13.188;2022-12-18T04:30:31;102800.91;;;-4.49;95.41
829;BME280;396;52.558;13.188;2022-12-18T04:32:58;102796.22;;;-4.55;95.91
829;BME280;396;52.558;13.188;2022-12-18T04:35:25;102805.66;;;-4.53;96.18
829;BME280;396;52.558;13.188;2022-12-18T04:37:52;102788.41;;;-4.57;96.71
829;BME280;396;52.558;13.188;2022-12-18T04:40:19;102806.47;;;-4.52;96.20
829;BME280;396;52.558;13.188;2022-12-18T04:42:45;102803.94;;;-4.44;95.44
829;BME280;396;52.558;13.188;2022-12-18T04:45:12;102806.84;;;-4.38;95.60
829;BME280;396;52.558;13.188;2022-12-18T04:47:40;102795.84;;;-4.43;95.24
829;BME280;396;52.558;13.188;2022-12-18T04:50:07;102800.34;;;-4.53;96.23
829;BME280;396;52.558;13.188;2022-12-18T04:52:34;102799.38;;;-4.52;96.61
829;BME280;396;52.558;13.188;2022-12-18T04:55:01;102800.63;;;-4.56;97.35
829;BME280;396;52.558;13.188;2022-12-18T04:57:28;102799.91;;;-4.48;97.28
829;BME280;396;52.558;13.188;2022-12-18T04:59:55;102800.31;;;-4.43;97.13
829;BME280;396;52.558;13.188;2022-12-18T05:02:21;102808.94;;;-4.41;96.85
829;BME280;396;52.558;13.188;2022-12-18T05:04:49;102810.66;;;-4.50;96.03
829;BME280;396;52.558;13.188;2022-12-18T05:07:16;102813.09;;;-4.39;95.90
829;BME280;396;52.558;13.188;2022-12-18T05:09:43;102819.22;;;-4.38;95.68
829;BME280;396;52.558;13.188;2022-12-18T05:12:09;102822.16;;;-4.41;94.62
829;BME280;396;52.558;13.188;2022-12-18T05:14:36;102827.00;;;-4.37;94.52
829;BME280;396;52.558;13.188;2022-12-18T05:17:03;102832.00;;;-4.34;94.64
829;BME280;396;52.558;13.188;2022-12-18T05:19:29;102835.22;;;-4.40;94.46
829;BME280;396;52.558;13.188;2022-12-18T05:21:57;102840.97;;;-4.44;94.15
829;BME280;396;52.558;13.188;2022-12-18T05:24:24;102839.84;;;-4.42;93.89
829;BME280;396;52.558;13.188;2022-12-18T05:26:51;102851.09;;;-4.40;94.17
829;BME280;396;52.558;13.188;2022-12-18T05:29:17;102844.97;;;-4.40;94.21
829;BME280;396;52.558;13.188;2022-12-18T05:31:44;102847.88;;;-4.34;93.76
829;BME280;396;52.558;13.188;2022-12-18T05:34:11;102850.66;;;-4.35;94.14
829;BME280;396;52.558;13.188;2022-12-18T05:36:37;102843.38;;;-4.23;94.11
829;BME280;396;52.558;13.188;2022-12-18T05:39:05;102842.00;;;-4.27;93.45
829;BME280;396;52.558;13.188;2022-12-18T05:41:32;102838.13;;;-4.33;93.69
829;BME280;396;52.558;13.188;2022-12-18T05:43:59;102851.09;;;-4.40;93.56
829;BME280;396;52.558;13.188;2022-12-18T05:46:26;102853.34;;;-4.45;93.72
829;BME280;396;52.558;13.188;2022-12-18T05:48:53;102857.25;;;-4.49;93.30
829;BME280;396;52.558;13.188;2022-12-18T05:51:21;102849.06;;;-4.46;93.77
829;BME280;396;52.558;13.188;2022-12-18T05:53:48;102856.66;;;-4.43;93.88
829;BME280;396;52.558;13.188;2022-12-18T05:56:18;102869.81;;;-4.51;93.72
829;BME280;396;52.558;13.188;2022-12-18T05:58:46;102861.16;;;-4.53;94.20
829;BME280;396;52.558;13.188;2022-12-18T06:01:14;102870.09;;;-4.54;94.43
829;BME280;396;52.558;13.188;2022-12-18T06:03:42;102863.38;;;-4.48;94.03
829;BME280;396;52.558;13.188;2022-12-18T06:06:19;102861.56;;;-4.48;93.62
829;BME280;396;52.558;13.188;2022-12-18T06:08:46;102868.13;;;-4.52;93.88
829;BME280;396;52.558;13.188;2022-12-18T06:11:18;102865.50;;;-4.62;94.49
829;BME280;396;52.558;13.188;2022-12-18T06:13:46;102875.53;;;-4.65;94.67
829;BME280;396;52.558;13.188;2022-12-18T06:16:13;102874.81;;;-4.58;94.25
829;BME280;396;52.558;13.188;2022-12-18T06:18:39;102872.63;;;-4.62;94.91
829;BME280;396;52.558;13.188;2022-12-18T06:21:06;102883.59;;;-4.57;95.65
829;BME280;396;52.558;13.188;2022-12-18T06:23:33;102873.84;;;-4.57;95.55
829;BME280;396;52.558;13.188;2022-12-18T06:26:03;102886.34;;;-4.49;95.72
829;BME280;396;52.558;13.188;2022-12-18T06:28:32;102875.78;;;-4.49;95.56
829;BME280;396;52.558;13.188;2022-12-18T06:30:58;102880.38;;;-4.51;94.67
829;BME280;396;52.558;13.188;2022-12-18T06:33:26;102886.00;;;-4.64;94.79
829;BME280;396;52.558;13.188;2022-12-18T06:35:53;102900.31;;;-4.66;95.04
829;BME280;396;52.558;13.188;2022-12-18T06:38:20;102903.25;;;-4.79;95.52
829;BME280;396;52.558;13.188;2022-12-18T06:40:46;102911.19;;;-4.79;95.30
829;BME280;396;52.558;13.188;2022-12-18T06:43:13;102905.47;;;-4.74;95.70
829;BME280;396;52.558;13.188;2022-12-18T06:45:41;102927.19;;;-4.71;96.25
829;BME280;396;52.558;13.188;2022-12-18T06:48:08;102930.22;;;-4.66;95.98
829;BME280;396;52.558;13.188;2022-12-18T06:50:34;102939.84;;;-4.65;95.54
829;BME280;396;52.558;13.188;2022-12-18T06:53:01;102938.47;;;-4.69;95.33
829;BME280;396;52.558;13.188;2022-12-18T06:55:28;102932.91;;;-4.75;95.56
829;BME280;396;52.558;13.188;2022-12-18T06:57:54;102928.47;;;-4.85;95.43
829;BME280;396;52.558;13.188;2022-12-18T07:00:21;102924.44;;;-4.89;95.48
829;BME280;396;52.558;13.188;2022-12-18T07:02:49;102922.75;;;-4.90;95.84
829;BME280;396;52.558;13.188;2022-12-18T07:05:16;102921.38;;;-4.94;96.45
829;BME280;396;52.558;13.188;2022-12-18T07:07:42;102916.09;;;-4.94;96.57
829;BME280;396;52.558;13.188;2022-12-18T07:10:09;102916.91;;;-4.93;97.18
829;BME280;396;52.558;13.188;2022-12-18T07:12:36;102921.94;;;-4.90;97.18
829;BME280;396;52.558;13.188;2022-12-18T07:15:03;102918.72;;;-4.94;95.77
829;BME280;396;52.558;13.188;2022-12-18T07:17:30;102918.88;;;-5.05;95.68
829;BME280;396;52.558;13.188;2022-12-18T07:19:58;102925.28;;;-4.98;96.94
829;BME280;396;52.558;13.188;2022-12-18T07:22:25;102931.38;;;-4.88;97.16
829;BME280;396;52.558;13.188;2022-12-18T07:24:51;102928.19;;;-4.82;96.73
829;BME280;396;52.558;13.188;2022-12-18T07:27:18;102929.44;;;-4.86;96.89
829;BME280;396;52.558;13.188;2022-12-18T07:29:45;102928.88;;;-4.89;96.60
829;BME280;396;52.558;13.188;2022-12-18T07:32:11;102937.50;;;-4.77;96.57
829;BME280;396;52.558;13.188;2022-12-18T07:34:38;102929.00;;;-4.71;96.35
829;BME280;396;52.558;13.188;2022-12-18T07:37:06;102924.50;;;-4.61;95.71
829;BME280;396;52.558;13.188;2022-12-18T07:39:32;102917.28;;;-4.59;95.71
829;BME280;396;52.558;13.188;2022-12-18T07:41:59;102920.47;;;-4.65;95.04
829;BME280;396;52.558;13.188;2022-12-18T07:44:43;102919.09;;;-4.60;95.65
829;BME280;396;52.558;13.188;2022-12-18T07:47:10;102915.47;;;-4.59;95.09
829;BME280;396;52.558;13.188;2022-12-18T07:49:36;102912.72;;;-4.67;95.03
829;BME280;396;52.558;13.188;2022-12-18T07:52:03;102914.09;;;-4.63;96.01
829;BME280;396;52.558;13.188;2022-12-18T07:54:31;102924.81;;;-4.64;96.55
829;BME280;396;52.558;13.188;2022-12-18T07:56:58;102929.13;;;-4.63;97.04
829;BME280;396;52.558;13.188;2022-12-18T07:59:25;102920.91;;;-4.60;97.61
829;BME280;396;52.558;13.188;2022-12-18T08:01:52;102925.59;;;-4.44;97.34
829;BME280;396;52.558;13.188;2022-12-18T08:04:19;102938.38;;;-4.40;97.11
829;BME280;396;52.558;13.188;2022-12-18T08:06:46;102935.47;;;-4.37;96.51
829;BME280;396;52.558;13.188;2022-12-18T08:09:12;102932.22;;;-4.31;96.57
829;BME280;396;52.558;13.188;2022-12-18T08:11:40;102938.41;;;-4.49;96.14
829;BME280;396;52.558;13.188;2022-12-18T08:14:07;102951.47;;;-4.38;97.19
829;BME280;396;52.558;13.188;2022-12-18T08:16:34;102948.84;;;-4.38;96.50
829;BME280;396;52.558;13.188;2022-12-18T08:19:00;102951.44;;;-4.28;96.66
829;BME280;396;52.558;13.188;2022-12-18T08:21:29;102948.91;;;-4.20;96.15
829;BME280;396;52.558;13.188;2022-12-18T08:23:57;102946.56;;;-4.23;95.49
829;BME280;396;52.558;13.188;2022-12-18T08:26:25;102942.31;;;-4.16;96.18
829;BME280;396;52.558;13.188;2022-12-18T08:28:54;102947.78;;;-4.18;95.47
829;BME280;396;52.558;13.188;2022-12-18T08:31:22;102950.41;;;-4.18;95.49
829;BME280;396;52.558;13.188;2022-12-18T08:33:49;102955.66;;;-4.08;95.93
829;BME280;396;52.558;13.188;2022-12-18T08:36:16;102964.03;;;-4.13;96.53
829;BME280;396;52.558;13.188;2022-12-18T08:38:43;102959.69;;;-4.04;96.63
829;BME280;396;52.558;13.188;2022-12-18T08:41:13;102952.31;;;-4.00;96.66
829;BME280;396;52.558;13.188;2022-12-18T08:43:40;102954.78;;;-3.99;96.61
829;BME280;396;52.558;13.188;2022-12-18T08:46:27;102961.56;;;-3.87;96.23
829;BME280;396;52.558;13.188;2022-12-18T08:48:57;102970.28;;;-3.76;95.84
829;BME280;396;52.558;13.188;2022-12-18T08:51:23;102971.97;;;-3.75;95.22
829;BME280;396;52.558;13.188;2022-12-18T08:53:50;102977.66;;;-3.70;95.22
829;BME280;396;52.558;13.188;2022-12-18T08:56:16;102977.13;;;-3.74;95.08
829;BME280;396;52.558;13.188;2022-12-18T08:58:43;102972.94;;;-3.76;95.22
829;BME280;396;52.558;13.188;2022-12-18T09:01:11;102972.25;;;-3.78;95.34
829;BME280;396;52.558;13.188;2022-12-18T09:03:40;102975.84;;;-3.70;95.18
829;BME280;396;52.558;13.188;2022-12-18T09:06:07;102980.53;;;-3.64;95.25
829;BME280;396;52.558;13.188;2022-12-18T09:08:34;102990.13;;;-3.53;94.55
829;BME280;396;52.558;13.188;2022-12-18T09:11:01;102997.06;;;-3.52;94.37
829;BME280;396;52.558;13.188;2022-12-18T09:13:28;102992.66;;;-3.61;93.89
829;BME280;396;52.558;13.188;2022-12-18T09:15:55;102984.03;;;-3.63;94.27
829;BME280;396;52.558;13.188;2022-12-18T09:18:23;102987.66;;;-3.64;95.18
829;BME280;396;52.558;13.188;2022-12-18T09:20:51;102982.25;;;-3.72;94.43
829;BME280;396;52.558;13.188;2022-12-18T09:23:18;102991.53;;;-3.86;94.90
829;BME280;396;52.558;13.188;2022-12-18T09:25:45;102991.69;;;-3.88;96.07
829;BME280;396;52.558;13.188;2022-12-18T09:28:13;102998.75;;;-3.78;95.83
829;BME280;396;52.558;13.188;2022-12-18T09:30:42;103003.06;;;-3.77;96.18
829;BME280;396;52.558;13.188;2022-12-18T09:33:09;103000.50;;;-3.69;96.07
829;BME280;396;52.558;13.188;2022-12-18T09:35:40;102986.88;;;-3.74;96.31
829;BME280;396;52.558;13.188;2022-12-18T09:38:11;102984.34;;;-3.66;96.22
829;BME280;396;52.558;13.188;2022-12-18T09:40:42;102973.75;;;-3.66;95.92
829;BME280;396;52.558;13.188;2022-12-18T09:43:14;102982.06;;;-3.61;95.86
829;BME280;396;52.558;13.188;2022-12-18T09:45:45;102967.84;;;-3.60;95.80
829;BME280;396;52.558;13.188;2022-12-18T09:48:19;102974.50;;;-3.56;96.17
829;BME280;396;52.558;13.188;2022-12-18T09:50:48;102958.72;;;-3.48;95.73
829;BME280;396;52.558;13.188;2022-12-18T09:53:21;102952.22;;;-3.53;95.28
829;BME280;396;52.558;13.188;2022-12-18T09:55:52;102946.59;;;-3.50;95.11
829;BME280;396;52.558;13.188;2022-12-18T09:58:26;102938.25;;;-3.56;94.67
829;BME280;396;52.558;13.188;2022-12-18T10:00:54;102942.56;;;-3.55;95.22
829;BME280;396;52.558;13.188;2022-12-18T10:03:21;102935.72;;;-3.47;95.30
829;BME280;396;52.558;13.188;2022-12-18T10:05:57;102939.47;;;-3.50;95.42
829;BME280;396;52.558;13.188;2022-12-18T10:08:35;102939.56;;;-3.42;96.13
829;BME280;396;52.558;13.188;2022-12-18T10:11:21;102938.22;;;-3.28;95.87
829;BME280;396;52.558;13.188;2022-12-18T10:13:57;102936.78;;;-3.22;95.22
829;BME280;396;52.558;13.188;2022-12-18T10:16:31;102942.31;;;-3.16;94.97
829;BME280;396;52.558;13.188;2022-12-18T10:19:16;102935.06;;;-3.14;94.23
829;BME280;396;52.558;13.188;2022-12-18T10:21:49;102936.47;;;-3.19;94.75
829;BME280;396;52.558;13.188;2022-12-18T10:24:24;102927.16;;;-3.23;95.08
829;BME280;396;52.558;13.188;2022-12-18T10:26:55;102925.50;;;-3.24;94.73
829;BME280;396;52.558;13.188;2022-12-18T10:29:27;102921.56;;;-3.20;94.86
829;BME280;396;52.558;13.188;2022-12-18T10:31:53;102925.19;;;-3.21;94.50
829;BME280;396;52.558;13.188;2022-12-18T10:34:20;102924.28;;;-3.12;94.28
829;BME280;396;52.558;13.188;2022-12-18T10:36:47;102918.63;;;-3.17;94.60
829;BME280;396;52.558;13.188;2022-12-18T10:39:15;102912.03;;;-3.13;94.61
829;BME280;396;52.558;13.188;2022-12-18T10:41:44;102905.09;;;-3.06;94.53
829;BME280;396;52.558;13.188;2022-12-18T10:44:14;102901.88;;;-3.18;94.82
829;BME280;396;52.558;13.188;2022-12-18T10:46:42;102910.28;;;-3.22;94.98
829;BME280;396;52.558;13.188;2022-12-18T10:49:19;102902.00;;;-3.19;94.61
829;BME280;396;52.558;13.188;2022-12-18T10:51:48;102895.69;;;-3.26;94.94
829;BME280;396;52.558;13.188;2022-12-18T10:54:17;102894.97;;;-3.28;95.42
829;BME280;396;52.558;13.188;2022-12-18T10:56:46;102894.31;;;-3.13;95.11
829;BME280;396;52.558;13.188;2022-12-18T10:59:14;102881.59;;;-3.09;94.73
829;BME280;396;52.558;13.188;2022-12-18T11:01:50;102899.44;;;-3.11;94.73
829;BME280;396;52.558;13.188;2022-12-18T11:04:20;102892.78;;;-3.15;95.21
829;BME280;396;52.558;13.188;2022-12-18T11:06:56;102896.03;;;-3.03;95.51
829;BME280;396;52.558;13.188;2022-12-18T11:09:24;102908.16;;;-3.01;94.91
829;BME280;396;52.558;13.188;2022-12-18T11:11:54;102908.47;;;-3.04;94.85
829;BME280;396;52.558;13.188;2022-12-18T11:14:23;102910.47;;;-2.98;95.39
829;BME280;396;52.558;13.188;2022-12-18T11:16:51;102901.53;;;-2.97;95.22
829;BME280;396;52.558;13.188;2022-12-18T11:19:31;102899.31;;;-3.10;95.83
829;BME280;396;52.558;13.188;2022-12-18T11:21:58;102894.22;;;-3.03;96.55
829;BME280;396;52.558;13.188;2022-12-18T11:24:29;102897.00;;;-2.87;96.62
829;BME280;396;52.558;13.188;2022-12-18T11:27:00;102902.44;;;-2.88;96.06
829;BME280;396;52.558;13.188;2022-12-18T11:29:35;102888.34;;;-2.89;96.39
829;BME280;396;52.558;13.188;2022-12-18T11:32:22;102895.94;;;-2.94;96.44
829;BME280;396;52.558;13.188;2022-12-18T11:34:55;102886.25;;;-3.03;97.31
829;BME280;396;52.558;13.188;2022-12-18T11:37:24;102890.63;;;-2.94;97.01
829;BME280;396;52.558;13.188;2022-12-18T11:39:54;102898.88;;;-2.97;96.47
829;BME280;396;52.558;13.188;2022-12-18T11:42:28;102901.59;;;-2.89;96.92
829;BME280;396;52.558;13.188;2022-12-18T11:45:00;102910.63;;;-2.82;96.69
829;BME280;396;52.558;13.188;2022-12-18T11:47:34;102914.94;;;-2.81;96.26
829;BME280;396;52.558;13.188;2022-12-18T11:50:13;102913.47;;;-2.75;96.40
829;BME280;396;52.558;13.188;2022-12-18T11:52:41;102915.88;;;-2.64;96.31
829;BME280;396;52.558;13.188;2022-12-18T11:55:12;102921.19;;;-2.64;96.66
829;BME280;396;52.558;13.188;2022-12-18T11:57:46;102925.66;;;-2.64;95.81
829;BME280;396;52.558;13.188;2022-12-18T12:00:19;102924.97;;;-2.66;96.50
829;BME280;396;52.558;13.188;2022-12-18T12:03:14;102918.06;;;-2.59;96.30
829;BME280;396;52.558;13.188;2022-12-18T12:05:51;102926.03;;;-2.59;96.82
829;BME280;396;52.558;13.188;2022-12-18T12:08:33;102929.38;;;-2.49;96.63
829;BME280;396;52.558;13.188;2022-12-18T12:11:07;102922.31;;;-2.40;96.69
829;BME280;396;52.558;13.188;2022-12-18T12:13:45;102923.13;;;-2.40;96.85
829;BME280;396;52.558;13.188;2022-12-18T12:16:17;102924.13;;;-2.41;96.61
829;BME280;396;52.558;13.188;2022-12-18T12:18:58;102921.84;;;-2.36;97.06
829;BME280;396;52.558;13.188;2022-12-18T12:21:35;102930.50;;;-2.34;96.24
829;BME280;396;52.558;13.188;2022-12-18T12:24:12;102934.34;;;-2.28;96.33
829;BME280;396;52.558;13.188;2022-12-18T12:26:45;102932.47;;;-2.36;96.07
829;BME280;396;52.558;13.188;2022-12-18T12:29:29;102927.47;;;-2.39;96.58
829;BME280;396;52.558;13.188;2022-12-18T12:32:07;102941.09;;;-2.34;96.74
829;BME280;396;52.558;13.188;2022-12-18T12:34:46;102937.94;;;-2.37;96.80
829;BME280;396;52.558;13.188;2022-12-18T12:37:25;102931.63;;;-2.36;97.13
829;BME280;396;52.558;13.188;2022-12-18T12:39:58;102922.06;;;-2.29;97.12
829;BME280;396;52.558;13.188;2022-12-18T12:42:30;102920.91;;;-2.26;96.78
829;BME280;396;52.558;13.188;2022-12-18T12:45:35;102920.28;;;-2.20;97.12
829;BME280;396;52.558;13.188;2022-12-18T12:48:05;102909.19;;;-2.16;97.39
829;BME280;396;52.558;13.188;2022-12-18T12:50:34;102897.25;;;-2.12;97.02
829;BME280;396;52.558;13.188;2022-12-18T12:53:05;102895.56;;;-2.13;96.90
829;BME280;396;52.558;13.188;2022-12-18T12:55:34;102875.34;;;-2.14;96.56
829;BME280;396;52.558;13.188;2022-12-18T12:58:06;102867.19;;;-2.20;96.85
829;BME280;396;52.558;13.188;2022-12-18T13:00:41;102876.16;;;-2.13;96.66
829;BME280;396;52.558;13.188;2022-12-18T13:03:15;102876.16;;;-2.13;96.55
829;BME280;396;52.558;13.188;2022-12-18T13:05:50;102882.78;;;-2.17;96.13
829;BME280;396;52.558;13.188;2022-12-18T13:08:24;102885.56;;;-2.27;96.35
829;BME280;396;52.558;13.188;2022-12-18T13:10:52;102887.44;;;-2.19;95.99
829;BME280;396;52.558;13.188;2022-12-18T13:13:48;102897.34;;;-2.21;95.25
829;BME280;396;52.558;13.188;2022-12-18T13:16:18;102891.22;;;-2.22;96.10
829;BME280;396;52.558;13.188;2022-12-18T13:18:48;102879.63;;;-2.21;96.00
829;BME280;396;52.558;13.188;2022-12-18T13:21:21;102879.81;;;-2.14;95.96
829;BME280;396;52.558;13.188;2022-12-18T13:23:50;102887.13;;;-2.16;96.10
829;BME280;396;52.558;13.188;2022-12-18T13:26:33;102879.44;;;-2.28;96.26
829;BME280;396;52.558;13.188;2022-12-18T13:29:02;102872.34;;;-2.19;96.23
829;BME280;396;52.558;13.188;2022-12-18T13:31:59;102866.38;;;-2.21;95.17
829;BME280;396;52.558;13.188;2022-12-18T13:34:28;102863.88;;;-2.14;96.08
829;BME280;396;52.558;13.188;2022-12-18T13:36:57;102873.47;;;-2.21;95.85